sensor_id;sensor_type;location;lat;lon;timestamp;temperature;humidity
23681;DHT22;62915;50.832;4.462;2023-06-10T00:01:43;23.90;99.90
23681;DHT22;62915;50.832;4.462;2023-06-10T00:04:13;23.70;99.90
23681;DHT22;62915;50.832;4.462;2023-06-10T00:06:40;23.60;99.90
23681;DHT22;62915;50.832;4.462;2023-06-10T00:09:06;23.70;99.90
23681;DHT22;62915;50.832;4.462;2023-06-10T00:11:39;23.70;99.90
23681;DHT22;62915;50.832;4.462;2023-06-10T00:14:05;23.60;99.90
23681;DHT22;62915;50.832;4.462;2023-06-10T00:16:30;23.70;99.90
23681;DHT22;62915;50.832;4.462;2023-06-10T00:18:56;23.60;99.90
23681;DHT22;62915;50.832;4.462;2023-06-10T00:21:27;23.60;99.90
23681;DHT22;62915;50.832;4.462;2023-06-10T00:23:53;23.70;99.90
23681;DHT22;62915;50.832;4.462;2023-06-10T00:26:21;23.50;99.90
23681;DHT22;62915;50.832;4.462;2023-06-10T00:28:48;23.60;99.90
23681;DHT22;62915;50.832;4.462;2023-06-10T00:31:13;23.60;99.90
23681;DHT22;62915;50.832;4.462;2023-06-10T00:33:39;23.40;99.90
23681;DHT22;62915;50.832;4.462;2023-06-10T00:36:05;23.60;99.90
23681;DHT22;62915;50.832;4.462;2023-06-10T00:38:31;23.60;99.90
23681;DHT22;62915;50.832;4.462;2023-06-10T00:40:57;23.40;99.90
23681;DHT22;62915;50.832;4.462;2023-06-10T00:43:23;23.40;99.90
23681;DHT22;62915;50.832;4.462;2023-06-10T00:45:49;23.50;99.90
23681;DHT22;62915;50.832;4.462;2023-06-10T00:48:17;23.60;99.90
23681;DHT22;62915;50.832;4.462;2023-06-10T00:50:43;23.50;99.90
23681;DHT22;62915;50.832;4.462;2023-06-10T00:53:09;23.50;99.90
23681;DHT22;62915;50.832;4.462;2023-06-10T00:55:37;23.50;99.90
23681;DHT22;62915;50.832;4.462;2023-06-10T00:58:03;23.40;99.90
23681;DHT22;62915;50.832;4.462;2023-06-10T01:00:29;23.30;99.90
23681;DHT22;62915;50.832;4.462;2023-06-10T01:02:55;23.30;99.90
23681;DHT22;62915;50.832;4.462;2023-06-10T01:05:23;23.20;99.90
23681;DHT22;62915;50.832;4.462;2023-06-10T01:10:43;23.30;99.90
23681;DHT22;62915;50.832;4.462;2023-06-10T01:13:10;23.10;99.90
23681;DHT22;62915;50.832;4.462;2023-06-10T01:15:40;23.00;99.90
23681;DHT22;62915;50.832;4.462;2023-06-10T01:18:08;23.00;99.90
23681;DHT22;62915;50.832;4.462;2023-06-10T01:20:37;23.00;99.90
23681;DHT22;62915;50.832;4.462;2023-06-10T01:23:06;22.90;99.90
23681;DHT22;62915;50.832;4.462;2023-06-10T01:25:32;22.80;99.90
23681;DHT22;62915;50.832;4.462;2023-06-10T01:28:18;22.80;99.90
23681;DHT22;62915;50.832;4.462;2023-06-10T01:31:07;22.70;99.90
23681;DHT22;62915;50.832;4.462;2023-06-10T01:33:41;22.80;99.90
23681;DHT22;62915;50.832;4.462;2023-06-10T01:36:08;22.90;99.90
23681;DHT22;62915;50.832;4.462;2023-06-10T01:38:40;22.90;99.90
23681;DHT22;62915;50.832;4.462;2023-06-10T01:41:08;22.80;99.90
23681;DHT22;62915;50.832;4.462;2023-06-10T01:43:38;22.70;99.90
23681;DHT22;62915;50.832;4.462;2023-06-10T01:46:04;22.70;99.90
23681;DHT22;62915;50.832;4.462;2023-06-10T01:48:30;22.60;99.90
23681;DHT22;62915;50.832;4.462;2023-06-10T01:50:56;22.60;99.90
23681;DHT22;62915;50.832;4.462;2023-06-10T01:53:22;22.60;99.90
23681;DHT22;62915;50.832;4.462;2023-06-10T01:55:48;22.50;99.90
23681;DHT22;62915;50.832;4.462;2023-06-10T01:58:14;22.60;99.90
23681;DHT22;62915;50.832;4.462;2023-06-10T02:00:40;22.70;99.90
23681;DHT22;62915;50.832;4.462;2023-06-10T02:03:06;22.60;99.90
23681;DHT22;62915;50.832;4.462;2023-06-10T02:05:31;22.60;99.90
23681;DHT22;62915;50.832;4.462;2023-06-10T02:07:57;22.70;99.90
23681;DHT22;62915;50.832;4.462;2023-06-10T02:10:24;22.60;99.90
23681;DHT22;62915;50.832;4.462;2023-06-10T02:12:50;22.70;99.90
23681;DHT22;62915;50.832;4.462;2023-06-10T02:15:16;22.60;99.90
23681;DHT22;62915;50.832;4.462;2023-06-10T02:17:42;22.60;99.90
23681;DHT22;62915;50.832;4.462;2023-06-10T02:20:08;22.50;99.90
23681;DHT22;62915;50.832;4.462;2023-06-10T02:22:36;22.50;99.90
23681;DHT22;62915;50.832;4.462;2023-06-10T02:25:03;22.40;99.90
23681;DHT22;62915;50.832;4.462;2023-06-10T02:27:29;22.30;99.90
23681;DHT22;62915;50.832;4.462;2023-06-10T02:29:56;22.20;99.90
23681;DHT22;62915;50.832;4.462;2023-06-10T02:32:22;22.20;99.90
23681;DHT22;62915;50.832;4.462;2023-06-10T02:34:48;22.20;99.90
23681;DHT22;62915;50.832;4.462;2023-06-10T02:37:17;22.20;99.90
23681;DHT22;62915;50.832;4.462;2023-06-10T02:39:43;22.20;99.90
23681;DHT22;62915;50.832;4.462;2023-06-10T02:42:09;22.00;99.90
23681;DHT22;62915;50.832;4.462;2023-06-10T02:44:36;22.10;99.90
23681;DHT22;62915;50.832;4.462;2023-06-10T02:47:01;22.10;99.90
23681;DHT22;62915;50.832;4.462;2023-06-10T02:49:27;22.30;99.90
23681;DHT22;62915;50.832;4.462;2023-06-10T02:51:53;22.20;99.90
23681;DHT22;62915;50.832;4.462;2023-06-10T02:54:20;22.20;99.90
23681;DHT22;62915;50.832;4.462;2023-06-10T02:56:46;22.20;99.90
23681;DHT22;62915;50.832;4.462;2023-06-10T02:59:14;22.30;99.90
23681;DHT22;62915;50.832;4.462;2023-06-10T03:01:40;22.40;99.90
23681;DHT22;62915;50.832;4.462;2023-06-10T03:04:06;22.30;99.90
23681;DHT22;62915;50.832;4.462;2023-06-10T03:06:32;22.30;99.90
23681;DHT22;62915;50.832;4.462;2023-06-10T03:09:02;22.20;99.90
23681;DHT22;62915;50.832;4.462;2023-06-10T03:11:30;22.20;99.90
23681;DHT22;62915;50.832;4.462;2023-06-10T03:13:56;22.20;99.90
23681;DHT22;62915;50.832;4.462;2023-06-10T03:16:22;22.20;99.90
23681;DHT22;62915;50.832;4.462;2023-06-10T03:18:49;22.30;99.90
23681;DHT22;62915;50.832;4.462;2023-06-10T03:21:14;22.20;99.90
23681;DHT22;62915;50.832;4.462;2023-06-10T03:23:40;22.10;99.90
23681;DHT22;62915;50.832;4.462;2023-06-10T03:26:06;22.00;99.90
23681;DHT22;62915;50.832;4.462;2023-06-10T03:28:33;22.00;99.90
23681;DHT22;62915;50.832;4.462;2023-06-10T03:30:58;22.10;99.90
23681;DHT22;62915;50.832;4.462;2023-06-10T03:33:24;22.00;99.90
23681;DHT22;62915;50.832;4.462;2023-06-10T03:35:50;22.00;99.90
23681;DHT22;62915;50.832;4.462;2023-06-10T03:38:16;22.00;99.90
23681;DHT22;62915;50.832;4.462;2023-06-10T03:40:42;22.00;99.90
23681;DHT22;62915;50.832;4.462;2023-06-10T03:43:08;22.10;99.90
23681;DHT22;62915;50.832;4.462;2023-06-10T03:45:34;22.00;99.90
23681;DHT22;62915;50.832;4.462;2023-06-10T03:48:00;21.80;99.90
23681;DHT22;62915;50.832;4.462;2023-06-10T03:50:26;21.80;99.90
23681;DHT22;62915;50.832;4.462;2023-06-10T03:52:52;22.00;99.90
23681;DHT22;62915;50.832;4.462;2023-06-10T03:55:18;22.00;99.90
23681;DHT22;62915;50.832;4.462;2023-06-10T03:57:43;22.00;99.90
23681;DHT22;62915;50.832;4.462;2023-06-10T04:00:10;22.00;99.90
23681;DHT22;62915;50.832;4.462;2023-06-10T04:02:37;22.00;99.90
23681;DHT22;62915;50.832;4.462;2023-06-10T04:05:07;22.00;99.90
23681;DHT22;62915;50.832;4.462;2023-06-10T04:07:33;22.10;99.90
23681;DHT22;62915;50.832;4.462;2023-06-10T04:09:59;22.00;99.90
23681;DHT22;62915;50.832;4.462;2023-06-10T04:12:25;22.00;99.90
23681;DHT22;62915;50.832;4.462;2023-06-10T04:14:51;21.80;99.90
23681;DHT22;62915;50.832;4.462;2023-06-10T04:17:17;21.80;99.90
23681;DHT22;62915;50.832;4.462;2023-06-10T04:19:43;21.80;99.90
23681;DHT22;62915;50.832;4.462;2023-06-10T04:22:09;21.70;99.90
23681;DHT22;62915;50.832;4.462;2023-06-10T04:24:34;21.80;99.90
23681;DHT22;62915;50.832;4.462;2023-06-10T04:27:01;21.70;99.90
23681;DHT22;62915;50.832;4.462;2023-06-10T04:29:27;21.70;99.90
23681;DHT22;62915;50.832;4.462;2023-06-10T04:31:52;21.80;99.90
23681;DHT22;62915;50.832;4.462;2023-06-10T04:34:18;21.80;99.90
23681;DHT22;62915;50.832;4.462;2023-06-10T04:36:44;21.70;99.90
23681;DHT22;62915;50.832;4.462;2023-06-10T04:39:09;21.80;99.90
23681;DHT22;62915;50.832;4.462;2023-06-10T04:41:35;21.70;99.90
23681;DHT22;62915;50.832;4.462;2023-06-10T04:44:04;21.70;99.90
23681;DHT22;62915;50.832;4.462;2023-06-10T04:46:29;21.60;99.90
23681;DHT22;62915;50.832;4.462;2023-06-10T04:48:57;21.70;99.90
23681;DHT22;62915;50.832;4.462;2023-06-10T04:51:23;21.60;99.90
23681;DHT22;62915;50.832;4.462;2023-06-10T04:53:49;21.60;99.90
23681;DHT22;62915;50.832;4.462;2023-06-10T04:56:14;21.60;99.90
23681;DHT22;62915;50.832;4.462;2023-06-10T04:58:41;21.70;99.90
23681;DHT22;62915;50.832;4.462;2023-06-10T05:01:07;21.70;99.90
23681;DHT22;62915;50.832;4.462;2023-06-10T05:03:33;21.70;99.90
23681;DHT22;62915;50.832;4.462;2023-06-10T05:05:58;21.80;99.90
23681;DHT22;62915;50.832;4.462;2023-06-10T05:08:24;21.80;99.90
23681;DHT22;62915;50.832;4.462;2023-06-10T05:10:50;21.70;99.90
23681;DHT22;62915;50.832;4.462;2023-06-10T05:13:16;21.60;99.90
23681;DHT22;62915;50.832;4.462;2023-06-10T05:15:43;21.60;99.90
23681;DHT22;62915;50.832;4.462;2023-06-10T05:18:10;21.60;99.90
23681;DHT22;62915;50.832;4.462;2023-06-10T05:20:38;21.50;99.90
23681;DHT22;62915;50.832;4.462;2023-06-10T05:23:03;21.60;99.90
23681;DHT22;62915;50.832;4.462;2023-06-10T05:25:33;21.60;99.90
23681;DHT22;62915;50.832;4.462;2023-06-10T05:27:59;21.80;99.90
23681;DHT22;62915;50.832;4.462;2023-06-10T05:30:25;21.90;99.90
23681;DHT22;62915;50.832;4.462;2023-06-10T05:32:52;21.90;99.90
23681;DHT22;62915;50.832;4.462;2023-06-10T05:35:18;21.90;99.90
23681;DHT22;62915;50.832;4.462;2023-06-10T05:37:44;22.00;99.90
23681;DHT22;62915;50.832;4.462;2023-06-10T05:40:10;21.70;99.90
23681;DHT22;62915;50.832;4.462;2023-06-10T05:42:36;21.70;99.90
23681;DHT22;62915;50.832;4.462;2023-06-10T05:45:03;21.70;99.90
23681;DHT22;62915;50.832;4.462;2023-06-10T05:47:28;21.70;99.90
23681;DHT22;62915;50.832;4.462;2023-06-10T05:49:54;21.70;99.90
23681;DHT22;62915;50.832;4.462;2023-06-10T05:52:20;21.90;99.90
23681;DHT22;62915;50.832;4.462;2023-06-10T05:54:46;22.10;99.90
23681;DHT22;62915;50.832;4.462;2023-06-10T05:57:12;22.20;99.90
23681;DHT22;62915;50.832;4.462;2023-06-10T05:59:37;22.20;99.90
23681;DHT22;62915;50.832;4.462;2023-06-10T06:02:03;22.40;99.90
23681;DHT22;62915;50.832;4.462;2023-06-10T06:04:29;22.30;99.90
23681;DHT22;62915;50.832;4.462;2023-06-10T06:06:55;22.30;99.90
23681;DHT22;62915;50.832;4.462;2023-06-10T06:09:21;22.30;99.90
23681;DHT22;62915;50.832;4.462;2023-06-10T06:11:46;22.40;99.90
23681;DHT22;62915;50.832;4.462;2023-06-10T06:14:12;22.40;99.90
23681;DHT22;62915;50.832;4.462;2023-06-10T06:16:38;22.50;99.90
23681;DHT22;62915;50.832;4.462;2023-06-10T06:19:04;22.60;99.90
23681;DHT22;62915;50.832;4.462;2023-06-10T06:21:29;22.70;99.90
23681;DHT22;62915;50.832;4.462;2023-06-10T06:23:55;22.80;99.90
23681;DHT22;62915;50.832;4.462;2023-06-10T06:26:21;22.90;99.90
23681;DHT22;62915;50.832;4.462;2023-06-10T06:28:47;22.80;99.90
23681;DHT22;62915;50.832;4.462;2023-06-10T06:31:12;22.80;99.90
23681;DHT22;62915;50.832;4.462;2023-06-10T06:33:38;22.90;99.90
23681;DHT22;62915;50.832;4.462;2023-06-10T06:36:05;22.90;99.90
23681;DHT22;62915;50.832;4.462;2023-06-10T06:38:31;22.90;99.90
23681;DHT22;62915;50.832;4.462;2023-06-10T06:40:57;23.00;99.90
23681;DHT22;62915;50.832;4.462;2023-06-10T06:43:28;23.10;99.90
23681;DHT22;62915;50.832;4.462;2023-06-10T06:45:56;23.20;99.90
23681;DHT22;62915;50.832;4.462;2023-06-10T06:48:21;23.30;99.90
23681;DHT22;62915;50.832;4.462;2023-06-10T06:50:47;23.30;99.90
23681;DHT22;62915;50.832;4.462;2023-06-10T06:53:13;23.40;99.90
23681;DHT22;62915;50.832;4.462;2023-06-10T06:55:39;23.60;99.90
23681;DHT22;62915;50.832;4.462;2023-06-10T06:58:05;23.60;99.90
23681;DHT22;62915;50.832;4.462;2023-06-10T07:00:31;23.70;99.90
23681;DHT22;62915;50.832;4.462;2023-06-10T07:02:57;23.60;99.90
23681;DHT22;62915;50.832;4.462;2023-06-10T07:05:24;23.60;99.90
23681;DHT22;62915;50.832;4.462;2023-06-10T07:07:53;23.60;99.90
23681;DHT22;62915;50.832;4.462;2023-06-10T07:10:24;23.60;99.90
23681;DHT22;62915;50.832;4.462;2023-06-10T07:12:50;23.80;99.90
23681;DHT22;62915;50.832;4.462;2023-06-10T07:15:16;24.00;99.90
23681;DHT22;62915;50.832;4.462;2023-06-10T07:17:42;24.00;99.90
23681;DHT22;62915;50.832;4.462;2023-06-10T07:20:08;24.20;99.90
23681;DHT22;62915;50.832;4.462;2023-06-10T07:22:34;24.20;99.90
23681;DHT22;62915;50.832;4.462;2023-06-10T07:25:00;24.30;99.90
23681;DHT22;62915;50.832;4.462;2023-06-10T07:27:25;24.40;99.90
23681;DHT22;62915;50.832;4.462;2023-06-10T07:29:51;24.40;99.90
23681;DHT22;62915;50.832;4.462;2023-06-10T07:32:17;24.50;99.90
23681;DHT22;62915;50.832;4.462;2023-06-10T07:34:43;24.50;99.90
23681;DHT22;62915;50.832;4.462;2023-06-10T07:37:09;24.70;99.90
23681;DHT22;62915;50.832;4.462;2023-06-10T07:39:35;24.80;99.90
23681;DHT22;62915;50.832;4.462;2023-06-10T07:42:01;24.90;99.90
23681;DHT22;62915;50.832;4.462;2023-06-10T07:44:27;25.00;99.90
23681;DHT22;62915;50.832;4.462;2023-06-10T07:46:52;25.00;99.90
23681;DHT22;62915;50.832;4.462;2023-06-10T07:49:18;25.10;99.90
23681;DHT22;62915;50.832;4.462;2023-06-10T07:51:44;25.20;99.90
23681;DHT22;62915;50.832;4.462;2023-06-10T07:54:10;25.30;99.90
23681;DHT22;62915;50.832;4.462;2023-06-10T07:56:38;25.40;99.90
23681;DHT22;62915;50.832;4.462;2023-06-10T07:59:03;25.60;99.90
23681;DHT22;62915;50.832;4.462;2023-06-10T08:01:29;25.80;99.90
23681;DHT22;62915;50.832;4.462;2023-06-10T08:03:56;26.00;99.90
23681;DHT22;62915;50.832;4.462;2023-06-10T08:06:22;26.20;99.90
23681;DHT22;62915;50.832;4.462;2023-06-10T08:08:48;26.30;99.90
23681;DHT22;62915;50.832;4.462;2023-06-10T08:11:14;26.60;99.90
23681;DHT22;62915;50.832;4.462;2023-06-10T08:13:39;26.70;99.90
23681;DHT22;62915;50.832;4.462;2023-06-10T08:16:06;26.90;99.90
23681;DHT22;62915;50.832;4.462;2023-06-10T08:18:31;27.10;99.90
23681;DHT22;62915;50.832;4.462;2023-06-10T08:20:57;27.30;99.90
23681;DHT22;62915;50.832;4.462;2023-06-10T08:23:23;27.40;99.90
23681;DHT22;62915;50.832;4.462;2023-06-10T08:25:49;27.30;99.90
23681;DHT22;62915;50.832;4.462;2023-06-10T08:28:15;27.50;99.90
23681;DHT22;62915;50.832;4.462;2023-06-10T08:30:41;27.50;99.90
23681;DHT22;62915;50.832;4.462;2023-06-10T08:33:06;27.80;99.90
23681;DHT22;62915;50.832;4.462;2023-06-10T08:35:32;27.90;99.90
23681;DHT22;62915;50.832;4.462;2023-06-10T08:37:58;28.20;99.90
23681;DHT22;62915;50.832;4.462;2023-06-10T08:40:24;28.30;99.90
23681;DHT22;62915;50.832;4.462;2023-06-10T08:43:05;28.50;99.90
23681;DHT22;62915;50.832;4.462;2023-06-10T08:45:32;28.70;99.90
23681;DHT22;62915;50.832;4.462;2023-06-10T08:48:03;28.90;99.60
23681;DHT22;62915;50.832;4.462;2023-06-10T08:50:34;29.00;99.20
23681;DHT22;62915;50.832;4.462;2023-06-10T08:53:01;29.10;99.20
23681;DHT22;62915;50.832;4.462;2023-06-10T08:55:35;29.20;99.90
23681;DHT22;62915;50.832;4.462;2023-06-10T08:58:02;29.40;97.60
23681;DHT22;62915;50.832;4.462;2023-06-10T09:00:29;29.30;98.50
23681;DHT22;62915;50.832;4.462;2023-06-10T09:02:59;29.40;99.80
23681;DHT22;62915;50.832;4.462;2023-06-10T09:05:27;29.40;97.40
23681;DHT22;62915;50.832;4.462;2023-06-10T09:07:53;29.70;96.50
23681;DHT22;62915;50.832;4.462;2023-06-10T09:10:19;29.70;95.60
23681;DHT22;62915;50.832;4.462;2023-06-10T09:12:45;29.80;96.20
23681;DHT22;62915;50.832;4.462;2023-06-10T09:15:13;29.90;96.00
23681;DHT22;62915;50.832;4.462;2023-06-10T09:17:40;30.00;96.10
23681;DHT22;62915;50.832;4.462;2023-06-10T09:20:07;30.20;94.70
23681;DHT22;62915;50.832;4.462;2023-06-10T09:22:33;30.20;95.00
23681;DHT22;62915;50.832;4.462;2023-06-10T09:25:04;30.40;94.20
23681;DHT22;62915;50.832;4.462;2023-06-10T09:27:31;30.30;95.20
23681;DHT22;62915;50.832;4.462;2023-06-10T09:29:59;30.30;95.00
23681;DHT22;62915;50.832;4.462;2023-06-10T09:32:26;30.20;95.20
23681;DHT22;62915;50.832;4.462;2023-06-10T09:34:53;30.30;95.70
23681;DHT22;62915;50.832;4.462;2023-06-10T09:37:23;30.40;94.30
23681;DHT22;62915;50.832;4.462;2023-06-10T09:40:07;30.80;93.70
23681;DHT22;62915;50.832;4.462;2023-06-10T09:42:37;30.90;94.60
23681;DHT22;62915;50.832;4.462;2023-06-10T09:45:04;30.80;92.30
23681;DHT22;62915;50.832;4.462;2023-06-10T09:47:30;30.90;92.10
23681;DHT22;62915;50.832;4.462;2023-06-10T09:49:56;30.80;91.60
23681;DHT22;62915;50.832;4.462;2023-06-10T09:52:26;31.20;93.40
23681;DHT22;62915;50.832;4.462;2023-06-10T09:54:53;31.20;91.00
23681;DHT22;62915;50.832;4.462;2023-06-10T09:57:21;31.30;92.00
23681;DHT22;62915;50.832;4.462;2023-06-10T09:59:47;31.50;93.30
23681;DHT22;62915;50.832;4.462;2023-06-10T10:02:17;31.80;90.60
23681;DHT22;62915;50.832;4.462;2023-06-10T10:04:46;31.90;90.70
23681;DHT22;62915;50.832;4.462;2023-06-10T10:07:12;32.10;89.60
23681;DHT22;62915;50.832;4.462;2023-06-10T10:09:39;31.80;87.10
23681;DHT22;62915;50.832;4.462;2023-06-10T10:12:14;32.10;86.90
23681;DHT22;62915;50.832;4.462;2023-06-10T10:14:45;32.10;85.70
23681;DHT22;62915;50.832;4.462;2023-06-10T10:17:11;32.10;86.00
23681;DHT22;62915;50.832;4.462;2023-06-10T10:19:48;32.00;86.70
23681;DHT22;62915;50.832;4.462;2023-06-10T10:22:28;31.90;85.50
23681;DHT22;62915;50.832;4.462;2023-06-10T10:25:02;32.00;86.00
23681;DHT22;62915;50.832;4.462;2023-06-10T10:30:11;32.10;79.00
23681;DHT22;62915;50.832;4.462;2023-06-10T10:32:50;32.20;81.20
23681;DHT22;62915;50.832;4.462;2023-06-10T10:35:20;32.00;76.80
23681;DHT22;62915;50.832;4.462;2023-06-10T10:37:54;32.00;79.00
23681;DHT22;62915;50.832;4.462;2023-06-10T10:40:24;32.20;78.40
23681;DHT22;62915;50.832;4.462;2023-06-10T10:42:51;32.50;79.80
23681;DHT22;62915;50.832;4.462;2023-06-10T10:45:18;32.50;82.00
23681;DHT22;62915;50.832;4.462;2023-06-10T10:47:46;32.70;78.50
23681;DHT22;62915;50.832;4.462;2023-06-10T10:50:16;32.70;74.20
23681;DHT22;62915;50.832;4.462;2023-06-10T10:55:26;32.80;73.50
23681;DHT22;62915;50.832;4.462;2023-06-10T10:58:02;32.70;76.00
23681;DHT22;62915;50.832;4.462;2023-06-10T11:00:33;32.70;80.00
23681;DHT22;62915;50.832;4.462;2023-06-10T11:05:35;32.70;80.40
23681;DHT22;62915;50.832;4.462;2023-06-10T11:08:02;33.00;76.10
23681;DHT22;62915;50.832;4.462;2023-06-10T11:10:33;33.10;74.10
23681;DHT22;62915;50.832;4.462;2023-06-10T11:13:00;33.20;71.20
23681;DHT22;62915;50.832;4.462;2023-06-10T11:15:29;33.20;74.20
23681;DHT22;62915;50.832;4.462;2023-06-10T11:31:30;33.20;70.10
23681;DHT22;62915;50.832;4.462;2023-06-10T11:34:01;33.50;71.00
23681;DHT22;62915;50.832;4.462;2023-06-10T11:36:29;33.10;71.40
23681;DHT22;62915;50.832;4.462;2023-06-10T11:39:04;33.00;73.00
23681;DHT22;62915;50.832;4.462;2023-06-10T11:41:31;33.00;70.40
23681;DHT22;62915;50.832;4.462;2023-06-10T11:44:18;33.00;68.40
23681;DHT22;62915;50.832;4.462;2023-06-10T11:46:44;33.00;70.60
23681;DHT22;62915;50.832;4.462;2023-06-10T11:49:11;33.10;68.20
23681;DHT22;62915;50.832;4.462;2023-06-10T11:51:38;33.20;69.30
23681;DHT22;62915;50.832;4.462;2023-06-10T11:54:08;33.20;68.50
23681;DHT22;62915;50.832;4.462;2023-06-10T11:56:34;33.50;72.70
23681;DHT22;62915;50.832;4.462;2023-06-10T11:59:02;33.30;68.90
23681;DHT22;62915;50.832;4.462;2023-06-10T12:01:35;33.10;67.20
23681;DHT22;62915;50.832;4.462;2023-06-10T12:04:04;33.00;69.00
23681;DHT22;62915;50.832;4.462;2023-06-10T12:09:14;33.00;67.80
23681;DHT22;62915;50.832;4.462;2023-06-10T12:11:41;33.00;67.20
23681;DHT22;62915;50.832;4.462;2023-06-10T12:14:07;32.50;66.60
23681;DHT22;62915;50.832;4.462;2023-06-10T12:16:33;32.20;66.90
23681;DHT22;62915;50.832;4.462;2023-06-10T12:19:05;32.20;70.30
23681;DHT22;62915;50.832;4.462;2023-06-10T12:21:33;32.30;69.30
23681;DHT22;62915;50.832;4.462;2023-06-10T12:24:10;32.70;68.40
23681;DHT22;62915;50.832;4.462;2023-06-10T12:26:43;33.00;68.30
23681;DHT22;62915;50.832;4.462;2023-06-10T12:32:02;33.20;66.10
23681;DHT22;62915;50.832;4.462;2023-06-10T12:37:01;33.50;67.40
23681;DHT22;62915;50.832;4.462;2023-06-10T12:39:28;33.70;66.20
23681;DHT22;62915;50.832;4.462;2023-06-10T12:41:54;33.70;66.30
23681;DHT22;62915;50.832;4.462;2023-06-10T12:44:33;33.50;66.10
23681;DHT22;62915;50.832;4.462;2023-06-10T12:47:00;33.40;67.00
23681;DHT22;62915;50.832;4.462;2023-06-10T12:49:27;33.40;65.00
23681;DHT22;62915;50.832;4.462;2023-06-10T12:51:53;33.10;65.40
23681;DHT22;62915;50.832;4.462;2023-06-10T12:54:19;33.10;66.40
23681;DHT22;62915;50.832;4.462;2023-06-10T12:56:45;33.20;67.40
23681;DHT22;62915;50.832;4.462;2023-06-10T12:59:11;33.20;65.20
23681;DHT22;62915;50.832;4.462;2023-06-10T13:01:37;33.30;66.70
23681;DHT22;62915;50.832;4.462;2023-06-10T13:04:05;33.40;65.80
23681;DHT22;62915;50.832;4.462;2023-06-10T13:06:32;33.40;66.00
23681;DHT22;62915;50.832;4.462;2023-06-10T13:09:01;33.50;66.70
23681;DHT22;62915;50.832;4.462;2023-06-10T13:11:28;33.60;65.90
23681;DHT22;62915;50.832;4.462;2023-06-10T13:13:53;33.50;65.90
23681;DHT22;62915;50.832;4.462;2023-06-10T13:16:19;33.50;66.10
23681;DHT22;62915;50.832;4.462;2023-06-10T13:18:45;33.30;64.90
23681;DHT22;62915;50.832;4.462;2023-06-10T13:21:11;33.40;64.40
23681;DHT22;62915;50.832;4.462;2023-06-10T13:23:37;33.40;65.00
23681;DHT22;62915;50.832;4.462;2023-06-10T13:26:03;33.40;65.00
23681;DHT22;62915;50.832;4.462;2023-06-10T13:28:28;33.50;66.50
23681;DHT22;62915;50.832;4.462;2023-06-10T13:30:54;33.60;64.70
23681;DHT22;62915;50.832;4.462;2023-06-10T13:33:20;33.60;64.40
23681;DHT22;62915;50.832;4.462;2023-06-10T13:35:46;33.70;66.90
23681;DHT22;62915;50.832;4.462;2023-06-10T13:38:12;33.50;62.70
23681;DHT22;62915;50.832;4.462;2023-06-10T13:40:38;33.40;64.30
23681;DHT22;62915;50.832;4.462;2023-06-10T13:43:04;33.20;64.80
23681;DHT22;62915;50.832;4.462;2023-06-10T13:45:29;33.10;64.10
23681;DHT22;62915;50.832;4.462;2023-06-10T13:47:55;33.20;64.10
23681;DHT22;62915;50.832;4.462;2023-06-10T13:50:21;33.20;62.50
23681;DHT22;62915;50.832;4.462;2023-06-10T13:52:47;33.30;63.10
23681;DHT22;62915;50.832;4.462;2023-06-10T13:55:12;33.30;63.10
23681;DHT22;62915;50.832;4.462;2023-06-10T13:57:38;33.10;63.30
23681;DHT22;62915;50.832;4.462;2023-06-10T14:00:04;33.00;63.10
23681;DHT22;62915;50.832;4.462;2023-06-10T14:02:31;33.00;62.90
23681;DHT22;62915;50.832;4.462;2023-06-10T14:04:56;33.30;63.90
23681;DHT22;62915;50.832;4.462;2023-06-10T14:07:22;33.20;61.20
23681;DHT22;62915;50.832;4.462;2023-06-10T14:09:48;33.20;62.50
23681;DHT22;62915;50.832;4.462;2023-06-10T14:12:13;33.40;64.60
23681;DHT22;62915;50.832;4.462;2023-06-10T14:14:39;33.40;63.20
23681;DHT22;62915;50.832;4.462;2023-06-10T14:17:05;33.30;62.30
23681;DHT22;62915;50.832;4.462;2023-06-10T14:19:31;33.20;62.40
23681;DHT22;62915;50.832;4.462;2023-06-10T14:21:57;33.00;62.40
23681;DHT22;62915;50.832;4.462;2023-06-10T14:24:22;32.80;62.80
23681;DHT22;62915;50.832;4.462;2023-06-10T14:26:48;32.70;62.50
23681;DHT22;62915;50.832;4.462;2023-06-10T14:29:14;32.90;63.80
23681;DHT22;62915;50.832;4.462;2023-06-10T14:31:40;32.90;61.90
23681;DHT22;62915;50.832;4.462;2023-06-10T14:34:09;32.80;63.00
23681;DHT22;62915;50.832;4.462;2023-06-10T14:36:37;32.60;62.60
23681;DHT22;62915;50.832;4.462;2023-06-10T14:39:03;32.60;62.60
23681;DHT22;62915;50.832;4.462;2023-06-10T14:41:29;32.50;62.40
23681;DHT22;62915;50.832;4.462;2023-06-10T14:43:55;32.60;63.00
23681;DHT22;62915;50.832;4.462;2023-06-10T14:46:21;32.80;65.20
23681;DHT22;62915;50.832;4.462;2023-06-10T14:48:47;32.90;64.90
23681;DHT22;62915;50.832;4.462;2023-06-10T14:51:12;33.00;64.10
23681;DHT22;62915;50.832;4.462;2023-06-10T14:53:38;33.00;64.10
23681;DHT22;62915;50.832;4.462;2023-06-10T14:56:04;33.00;63.10
23681;DHT22;62915;50.832;4.462;2023-06-10T14:58:30;32.70;61.70
23681;DHT22;62915;50.832;4.462;2023-06-10T15:00:56;32.50;61.70
23681;DHT22;62915;50.832;4.462;2023-06-10T15:03:22;32.40;62.70
23681;DHT22;62915;50.832;4.462;2023-06-10T15:05:48;32.30;61.40
23681;DHT22;62915;50.832;4.462;2023-06-10T15:08:14;32.30;62.30
23681;DHT22;62915;50.832;4.462;2023-06-10T15:10:40;32.20;63.60
23681;DHT22;62915;50.832;4.462;2023-06-10T15:13:05;32.20;61.90
23681;DHT22;62915;50.832;4.462;2023-06-10T15:15:31;32.10;61.90
23681;DHT22;62915;50.832;4.462;2023-06-10T15:17:57;32.00;62.90
23681;DHT22;62915;50.832;4.462;2023-06-10T15:20:22;32.00;62.40
23681;DHT22;62915;50.832;4.462;2023-06-10T15:22:48;32.10;63.40
23681;DHT22;62915;50.832;4.462;2023-06-10T15:25:14;32.10;61.40
23681;DHT22;62915;50.832;4.462;2023-06-10T15:27:40;32.00;63.00
23681;DHT22;62915;50.832;4.462;2023-06-10T15:30:06;32.00;63.10
23681;DHT22;62915;50.832;4.462;2023-06-10T15:32:32;31.90;63.00
23681;DHT22;62915;50.832;4.462;2023-06-10T15:34:58;31.90;62.90
23681;DHT22;62915;50.832;4.462;2023-06-10T15:37:23;32.00;64.00
23681;DHT22;62915;50.832;4.462;2023-06-10T15:39:50;32.00;64.70
23681;DHT22;62915;50.832;4.462;2023-06-10T15:42:16;32.00;63.70
23681;DHT22;62915;50.832;4.462;2023-06-10T15:44:41;31.50;63.60
23681;DHT22;62915;50.832;4.462;2023-06-10T15:47:07;31.50;64.70
23681;DHT22;62915;50.832;4.462;2023-06-10T15:49:33;31.60;64.00
23681;DHT22;62915;50.832;4.462;2023-06-10T15:51:59;31.60;63.80
23681;DHT22;62915;50.832;4.462;2023-06-10T15:54:24;31.60;63.40
23681;DHT22;62915;50.832;4.462;2023-06-10T15:56:50;31.50;63.20
23681;DHT22;62915;50.832;4.462;2023-06-10T15:59:16;31.50;65.20
23681;DHT22;62915;50.832;4.462;2023-06-10T16:01:42;31.60;64.60